Time;durP1;ratioP1;P1;durP2;ratioP2;P2;SDS_P1;SDS_P2;PMS_P1;PMS_P2;Temp;Humidity;BMP_temperature;BMP_pressure;BME280_temperature;BME280_humidity;BME280_pressure;Samples;Min_cycle;Max_cycle;Signal;HPM_P1;HPM_P2
2022/05/09 00:01:54;;;;;;;35.20;23.02;;;;;;;9.46;99.80;98905.36;1735244;80;20842;-89
2022/05/09 00:04:20;;;;;;;29.87;22.50;;;;;;;9.45;99.95;98904.27;1743521;80;20902;-90
2022/05/09 00:06:47;;;;;;;30.68;20.02;;;;;;;9.45;100.00;98907.78;1726226;82;20877;-80
2022/05/09 00:09:13;;;;;;;28.32;21.97;;;;;;;9.45;100.00;98906.97;1755528;80;21036;-80
2022/05/09 00:11:39;;;;;;;32.58;22.22;;;;;;;9.44;99.11;98908.86;1679099;85;21971;-80
2022/05/09 00:14:05;;;;;;;32.65;20.88;;;;;;;9.43;98.74;98911.82;1709743;80;21006;-90
2022/05/09 00:16:34;;;;;;;31.10;20.92;;;;;;;9.42;99.09;98914.25;1720017;82;21021;-80
2022/05/09 00:19:05;;;;;;;;;;;;;;;9.43;98.29;98909.93;1720450;82;21063;-91
2022/05/09 00:21:34;;;;;;;31.50;20.60;;;;;;;9.44;99.46;98904.80;1694671;82;20102;-80
2022/05/09 00:24:00;;;;;;;30.92;20.72;;;;;;;9.45;98.95;98908.33;1721284;82;21283;-91
2022/05/09 00:26:31;;;;;;;30.90;21.07;;;;;;;9.48;99.48;98907.27;1743283;81;21060;-80
2022/05/09 00:28:57;;;;;;;31.33;22.40;;;;;;;9.50;99.38;98910.57;1743340;82;21018;-80
2022/05/09 00:31:23;;;;;;;34.23;22.17;;;;;;;9.51;99.23;98901.92;1727555;82;21068;-81
2022/05/09 00:33:49;;;;;;;25.30;18.07;;;;;;;9.51;99.23;98901.92;1732156;82;21089;-90
2022/05/09 00:36:18;;;;;;;27.60;20.08;;;;;;;9.48;99.14;98905.92;1708702;82;20935;-79
2022/05/09 00:38:45;;;;;;;31.48;22.80;;;;;;;9.46;99.37;98900.48;1721084;80;21074;-91
2022/05/09 00:41:31;;;;;;;25.55;18.40;;;;;;;9.47;99.22;98902.94;1750542;80;21482;-80
2022/05/09 00:44:03;;;;;;;20.57;16.05;;;;;;;9.56;99.44;98915.49;1678198;85;21003;-90
2022/05/09 00:46:29;;;;;;;22.87;15.50;;;;;;;9.56;99.44;98915.49;1726560;82;21044;-80
2022/05/09 00:49:00;;;;;;;24.67;16.12;;;;;;;9.58;98.54;98907.97;1713716;80;21878;-90
2022/05/09 00:51:26;;;;;;;26.10;17.50;;;;;;;9.58;99.73;98919.61;1750898;80;21474;-91
2022/05/09 00:53:52;;;;;;;24.10;17.50;;;;;;;9.58;99.42;98920.95;1728361;82;20917;-80
2022/05/09 00:56:26;;;;;;;21.55;16.50;;;;;;;9.55;100.00;98920.09;1743239;81;20979;-90
2022/05/09 00:58:58;;;;;;;24.15;16.85;;;;;;;9.47;100.00;98924.58;1741947;82;21465;-90
2022/05/09 01:01:24;;;;;;;23.57;16.87;;;;;;;9.42;99.75;98920.47;1743271;81;21069;-80
2022/05/09 01:04:11;;;;;;;23.90;16.90;;;;;;;9.42;99.75;98920.47;1743471;82;20921;-80
2022/05/09 01:06:38;;;;;;;25.90;18.40;;;;;;;9.43;98.75;98933.47;1743428;81;20998;-90
2022/05/09 01:09:05;;;;;;;28.00;17.52;;;;;;;9.42;99.01;98931.30;1718527;80;21056;-80
2022/05/09 01:11:32;;;;;;;22.13;17.00;;;;;;;9.40;99.01;98936.65;1743730;81;21072;-91
2022/05/09 01:14:08;;;;;;;21.15;16.12;;;;;;;9.38;98.42;98935.55;1722372;82;21137;-80
2022/05/09 01:16:35;;;;;;;24.18;17.50;;;;;;;9.35;97.94;98929.30;1715177;83;21014;-80
2022/05/09 01:19:05;;;;;;;23.45;16.65;;;;;;;9.30;97.96;98925.97;1727323;80;22193;-80
2022/05/09 01:21:39;;;;;;;29.90;18.65;;;;;;;9.27;98.13;98925.67;1725665;82;21036;-80
2022/05/09 01:24:15;;;;;;;29.50;17.90;;;;;;;9.24;98.21;98922.94;1719099;82;21073;-80
2022/05/09 01:26:41;;;;;;;27.90;19.23;;;;;;;9.22;98.82;98919.64;1743538;81;21129;-90
2022/05/09 01:29:13;;;;;;;28.55;20.65;;;;;;;9.16;100.00;98909.02;1717783;82;21522;-80
2022/05/09 01:31:39;;;;;;;29.80;19.27;;;;;;;9.21;100.00;98930.17;1694311;82;21121;-90
2022/05/09 01:34:07;;;;;;;26.52;17.60;;;;;;;9.15;100.00;98927.13;1711233;82;21034;-89
2022/05/09 01:36:33;;;;;;;22.13;15.98;;;;;;;9.13;100.00;98926.54;1731532;81;21041;-80
2022/05/09 01:39:09;;;;;;;24.10;16.82;;;;;;;9.18;99.60;98925.81;1725382;82;21147;-90
2022/05/09 01:41:39;;;;;;;25.62;16.23;;;;;;;9.18;99.12;98929.33;1743395;81;21048;-90
2022/05/09 01:44:05;;;;;;;27.98;18.32;;;;;;;9.16;99.13;98922.55;1717815;82;21450;-80
2022/05/09 01:46:32;;;;;;;25.02;15.95;;;;;;;9.16;99.12;98926.59;1703287;82;20991;-80
2022/05/09 01:51:46;;;;;;;22.58;15.72;;;;;;;9.14;98.78;98914.66;1740176;81;21279;-80
2022/05/09 01:54:13;;;;;;;23.87;16.97;;;;;;;9.20;99.28;98919.08;1725991;82;21525;-80
2022/05/09 01:56:40;;;;;;;26.62;18.45;;;;;;;9.23;99.12;98913.73;1690527;84;21101;-80
2022/05/09 01:59:08;;;;;;;25.00;17.65;;;;;;;9.28;100.00;98915.12;1721563;82;21092;-80
2022/05/09 02:01:43;;;;;;;24.00;16.77;;;;;;;9.29;100.00;98914.05;1725565;82;21516;-80
2022/05/09 02:04:11;;;;;;;22.22;16.37;;;;;;;9.26;100.00;98911.86;1710343;80;21167;-80
2022/05/09 02:06:38;;;;;;;25.15;17.12;;;;;;;9.20;100.00;98910.14;1760265;80;21012;-80
2022/05/09 02:09:04;;;;;;;23.75;16.05;;;;;;;9.15;100.00;98902.80;1732177;80;21031;-80
2022/05/09 02:11:30;;;;;;;25.77;16.73;;;;;;;9.15;100.00;98902.80;1758110;80;20997;-90
2022/05/09 02:13:56;;;;;;;27.55;18.55;;;;;;;9.21;100.00;98907.72;1743018;80;20963;-79
2022/05/09 02:16:22;;;;;;;25.30;17.30;;;;;;;9.26;100.00;98911.33;1729176;80;21149;-91
2022/05/09 02:18:48;;;;;;;24.10;18.05;;;;;;;9.33;100.00;98917.38;1742169;82;20893;-89
2022/05/09 02:21:14;;;;;;;24.57;16.82;;;;;;;9.38;100.00;98923.38;1744851;80;21139;-90
2022/05/09 02:23:40;;;;;;;28.65;17.95;;;;;;;9.38;100.00;98923.91;1779740;80;20874;-80
2022/05/09 02:26:06;;;;;;;22.93;16.05;;;;;;;9.37;100.00;98933.91;1725959;82;20918;-83
2022/05/09 02:28:31;;;;;;;26.73;18.50;;;;;;;9.39;100.00;98927.72;1705526;83;22028;-81
2022/05/09 02:30:57;;;;;;;20.85;14.18;;;;;;;9.41;99.99;98922.08;1722453;80;20954;-80
2022/05/09 02:33:23;;;;;;;21.30;16.67;;;;;;;9.39;99.65;98922.84;1728484;80;20910;-82
2022/05/09 02:35:49;;;;;;;21.55;16.27;;;;;;;9.37;99.75;98934.45;1725885;80;21490;-91
2022/05/09 02:38:15;;;;;;;21.95;15.28;;;;;;;9.36;100.00;98936.34;1730013;81;20889;-80
2022/05/09 02:40:42;;;;;;;19.77;15.05;;;;;;;9.37;100.00;98937.98;1717945;80;21164;-80
2022/05/09 02:43:08;;;;;;;21.97;15.30;;;;;;;9.31;100.00;98927.64;1719522;80;21007;-89
2022/05/09 02:45:34;;;;;;;26.62;16.00;;;;;;;9.26;100.00;98926.73;1732736;80;20991;-80
2022/05/09 02:48:00;;;;;;;19.00;14.15;;;;;;;9.26;100.00;98926.73;1711910;80;21050;-80
2022/05/09 02:50:26;;;;;;;25.23;14.38;;;;;;;9.28;100.00;98934.87;1735873;80;20988;-92
2022/05/09 02:52:53;;;;;;;22.73;15.72;;;;;;;9.23;100.00;98942.94;1764917;80;21073;-80
2022/05/09 02:55:20;;;;;;;28.83;16.93;;;;;;;9.21;100.00;98938.28;1719781;80;21026;-80
2022/05/09 02:57:46;;;;;;;24.23;16.67;;;;;;;9.19;100.00;98943.67;1736220;81;21011;-90
2022/05/09 03:00:23;;;;;;;26.77;16.00;;;;;;;9.11;100.00;98938.14;1723211;80;21006;-80
2022/05/09 03:05:33;;;;;;;25.23;15.38;;;;;;;9.06;99.96;98947.55;1740079;80;21116;-90
2022/05/09 03:07:59;;;;;;;22.48;15.32;;;;;;;8.99;100.00;98949.06;1743232;81;21001;-80
2022/05/09 03:10:28;;;;;;;22.90;16.42;;;;;;;8.96;100.00;98946.02;1721864;82;20891;-80
2022/05/09 03:12:53;;;;;;;20.97;14.35;;;;;;;8.95;99.98;98952.48;1714830;83;20988;-90
2022/05/09 03:15:19;;;;;;;23.12;16.25;;;;;;;8.90;100.00;98953.24;1718115;82;20909;-91
2022/05/09 03:17:45;;;;;;;25.32;16.00;;;;;;;8.90;100.00;98961.35;1736372;81;21359;-90
2022/05/09 03:20:11;;;;;;;24.20;15.63;;;;;;;8.91;100.00;98960.28;1707262;82;21087;-90
2022/05/09 03:22:37;;;;;;;19.35;15.10;;;;;;;8.89;99.27;98958.90;1707826;80;20907;-80
2022/05/09 03:25:04;;;;;;;21.90;16.62;;;;;;;8.83;99.01;98946.36;1728732;80;21014;-80
2022/05/09 03:27:30;;;;;;;21.73;15.85;;;;;;;8.78;99.19;98952.48;1743475;80;21452;-90
2022/05/09 03:29:56;;;;;;;21.52;15.58;;;;;;;8.78;99.51;98952.48;1728176;82;21171;-90
2022/05/09 03:32:22;;;;;;;24.12;16.97;;;;;;;8.81;99.11;98961.48;1718498;82;21197;-80
2022/05/09 03:34:48;;;;;;;26.02;17.48;;;;;;;8.81;99.75;98960.12;1727753;82;20898;-80
2022/05/09 03:37:14;;;;;;;28.80;16.67;;;;;;;8.82;100.00;98970.41;1716532;81;21057;-79
2022/05/09 03:39:40;;;;;;;25.25;16.62;;;;;;;8.79;100.00;98974.92;1713929;80;21573;-84
2022/05/09 03:42:06;;;;;;;32.38;18.05;;;;;;;8.82;100.00;98971.22;1740876;81;21119;-80
2022/05/09 03:44:32;;;;;;;25.20;16.45;;;;;;;8.84;100.00;98973.13;1738658;82;21440;-90
2022/05/09 03:46:58;;;;;;;25.68;16.73;;;;;;;8.86;99.97;98979.64;1705920;82;21010;-80
2022/05/09 03:49:25;;;;;;;26.55;17.20;;;;;;;8.93;99.81;98981.66;1726853;80;21043;-90
2022/05/09 03:51:51;;;;;;;26.33;15.78;;;;;;;8.93;99.81;98981.66;1728758;80;21006;-90
2022/05/09 03:54:17;;;;;;;26.00;16.80;;;;;;;8.94;100.00;98990.05;1724241;80;21138;-90
2022/05/09 03:56:42;;;;;;;22.87;15.93;;;;;;;8.93;100.00;98994.64;1733522;82;20957;-91
2022/05/09 03:59:08;;;;;;;24.07;15.88;;;;;;;8.94;100.00;98984.64;1711186;82;21548;-80
2022/05/09 04:01:34;;;;;;;25.40;15.68;;;;;;;8.97;99.94;98989.05;1727842;80;20952;-91
2022/05/09 04:04:01;;;;;;;22.42;16.67;;;;;;;8.99;100.00;98993.67;1739438;82;20865;-80
2022/05/09 04:06:27;;;;;;;28.05;19.10;;;;;;;9.07;99.77;98991.09;1730471;82;21287;-91
2022/05/09 04:08:53;;;;;;;26.25;18.02;;;;;;;9.19;99.47;98984.23;1722705;82;20993;-91
2022/05/09 04:11:19;;;;;;;30.92;20.08;;;;;;;9.23;100.00;98992.16;1716337;83;20909;-80
2022/05/09 04:13:46;;;;;;;32.45;21.75;;;;;;;9.29;99.38;98981.67;1733018;82;20981;-80
2022/05/09 04:18:59;;;;;;;31.27;19.17;;;;;;;9.32;100.00;98995.54;1721353;82;21863;-79
2022/05/09 04:21:24;;;;;;;34.75;19.05;;;;;;;9.33;100.00;98998.52;1741070;80;21073;-80
2022/05/09 04:23:50;;;;;;;32.30;21.77;;;;;;;9.39;99.88;98995.34;1718339;80;21536;-80
2022/05/09 04:26:16;;;;;;;25.88;19.90;;;;;;;9.43;99.74;98995.15;1753447;80;21057;-88
2022/05/09 04:28:42;;;;;;;23.77;17.90;;;;;;;9.52;99.54;98995.55;1737362;80;21406;-80
2022/05/09 04:31:08;;;;;;;25.68;18.30;;;;;;;9.52;99.54;98995.55;1707880;83;21037;-90
2022/05/09 04:33:34;;;;;;;29.70;18.55;;;;;;;9.59;98.89;99005.66;1734057;82;20893;-91
2022/05/09 04:36:00;;;;;;;26.40;18.95;;;;;;;9.70;98.88;99002.55;1718179;82;20905;-80
2022/05/09 04:38:26;;;;;;;22.95;17.52;;;;;;;9.78;98.67;99000.77;1748345;80;21461;-80
2022/05/09 04:40:54;;;;;;;26.37;18.32;;;;;;;9.83;99.42;99007.08;1747028;80;20909;-80
2022/05/09 04:43:24;;;;;;;20.75;16.73;;;;;;;9.98;100.00;99004.27;1743452;81;21146;-91
2022/05/09 04:45:51;;;;;;;23.73;17.17;;;;;;;10.13;100.00;99002.56;1743101;82;20997;-80
2022/05/09 04:48:18;;;;;;;29.63;17.70;;;;;;;10.32;99.94;99003.61;1743527;81;20993;-85
2022/05/09 04:50:44;;;;;;;23.07;18.17;;;;;;;10.48;99.42;99001.36;1743421;82;21069;-91
2022/05/09 04:53:10;;;;;;;23.65;16.80;;;;;;;10.59;99.00;99005.80;1737626;81;21587;-92
2022/05/09 04:55:37;;;;;;;23.22;16.50;;;;;;;10.66;98.96;99004.24;1743759;82;21197;-92
2022/05/09 04:58:03;;;;;;;22.58;14.85;;;;;;;10.79;98.65;99008.45;1743399;81;21457;-90
2022/05/09 05:00:29;;;;;;;20.20;13.88;;;;;;;10.83;98.31;99015.80;1724471;82;21069;-91
2022/05/09 05:02:55;;;;;;;22.95;15.00;;;;;;;10.83;97.99;99011.73;1742052;80;21082;-92
2022/05/09 05:05:23;;;;;;;22.80;15.00;;;;;;;10.82;97.79;99010.09;1715953;80;21049;-93
2022/05/09 05:07:49;;;;;;;23.00;14.18;;;;;;;10.84;97.87;99009.83;1736833;81;21270;-81
2022/05/09 05:10:15;;;;;;;24.72;15.38;;;;;;;10.90;97.69;99011.52;1722752;80;21075;-80
2022/05/09 05:12:41;;;;;;;28.90;14.58;;;;;;;10.92;98.01;99009.37;1706896;82;21054;-81
2022/05/09 05:15:08;;;;;;;22.62;14.98;;;;;;;11.04;97.89;99011.92;1729315;80;20968;-80
2022/05/09 05:17:35;;;;;;;26.40;14.53;;;;;;;11.21;97.96;99015.32;1741040;80;21469;-80
2022/05/09 05:20:02;;;;;;;26.37;16.23;;;;;;;11.29;97.56;99014.84;1727646;80;21250;-92
2022/05/09 05:22:28;;;;;;;19.65;14.53;;;;;;;11.37;97.11;99010.83;1712840;80;21486;-92
2022/05/09 05:24:54;;;;;;;22.65;14.28;;;;;;;11.44;97.09;99012.75;1721417;80;21533;-80
2022/05/09 05:27:23;;;;;;;21.25;14.68;;;;;;;11.51;96.92;99014.16;1729490;80;20961;-80
2022/05/09 05:29:49;;;;;;;24.67;15.58;;;;;;;11.63;96.62;99009.10;1730405;80;20993;-80
2022/05/09 05:32:21;;;;;;;19.30;15.35;;;;;;;11.71;96.45;99008.06;1714086;81;21160;-80
2022/05/09 05:34:48;;;;;;;31.57;16.02;;;;;;;11.78;96.46;99014.05;1721513;80;21123;-80
2022/05/09 05:37:14;;;;;;;35.33;20.30;;;;;;;11.93;96.38;99013.35;1725565;80;21521;-80
2022/05/09 05:39:41;;;;;;;29.87;19.00;;;;;;;12.03;96.06;99021.55;1719378;81;21490;-80
2022/05/09 05:42:07;;;;;;;24.80;16.07;;;;;;;12.13;95.03;99018.05;1724372;80;21097;-80
2022/05/09 05:44:34;;;;;;;21.95;15.43;;;;;;;12.20;94.99;99018.63;1727598;80;21129;-80
2022/05/09 05:47:05;;;;;;;20.77;14.35;;;;;;;12.25;94.67;99020.56;1727218;80;21091;-81
2022/05/09 05:49:32;;;;;;;17.57;14.03;;;;;;;12.38;94.72;99020.86;1719557;80;21053;-81
2022/05/09 05:52:02;;;;;;;19.55;13.60;;;;;;;12.55;94.41;99026.63;1738184;80;21005;-81
2022/05/09 05:54:28;;;;;;;22.15;14.13;;;;;;;12.61;93.51;99030.45;1730452;80;21100;-80
2022/05/09 05:56:54;;;;;;;14.38;12.78;;;;;;;12.83;93.27;99035.67;1729375;80;22127;-92
2022/05/09 05:59:19;;;;;;;22.58;14.20;;;;;;;13.01;91.62;99036.24;1730867;80;20921;-93
2022/05/09 06:01:45;;;;;;;16.85;11.85;;;;;;;13.29;92.66;99031.64;1731614;80;21016;-81
2022/05/09 06:04:11;;;;;;;15.13;13.15;;;;;;;13.51;92.58;99030.02;1731522;81;21008;-81
2022/05/09 06:06:37;;;;;;;19.75;14.53;;;;;;;13.71;91.95;99027.24;1720116;80;20876;-80
2022/05/09 06:09:05;;;;;;;17.30;12.37;;;;;;;13.90;92.26;99035.64;1722961;80;21153;-81
2022/05/09 06:11:31;;;;;;;15.93;12.53;;;;;;;14.03;91.17;99041.88;1735850;80;20996;-81
2022/05/09 06:13:59;;;;;;;16.73;11.50;;;;;;;14.08;88.63;99033.67;1731733;80;21695;-81
2022/05/09 06:16:25;;;;;;;24.37;11.93;;;;;;;14.30;90.20;99035.23;1733717;80;21155;-93
2022/05/09 06:18:52;;;;;;;19.77;12.30;;;;;;;14.37;90.00;99036.57;1720366;80;20860;-93
2022/05/09 06:21:18;;;;;;;17.90;11.63;;;;;;;14.61;90.01;99033.19;1725740;80;21120;-88
2022/05/09 06:23:45;;;;;;;15.55;11.08;;;;;;;14.84;87.40;99033.06;1728428;80;21167;-93
2022/05/09 06:26:14;;;;;;;16.00;11.53;;;;;;;14.77;86.93;99029.27;1714277;80;21048;-92
2022/05/09 06:28:39;;;;;;;17.32;12.40;;;;;;;14.90;87.35;99027.84;1736606;80;21465;-92
2022/05/09 06:31:05;;;;;;;18.32;13.55;;;;;;;15.14;86.87;99037.50;1723183;80;20986;-92
2022/05/09 06:33:32;;;;;;;17.60;13.88;;;;;;;15.40;85.44;99038.11;1725373;80;21923;-92
2022/05/09 06:35:58;;;;;;;13.65;11.78;;;;;;;15.62;86.10;99037.66;1715271;80;20889;-92
2022/05/09 06:38:27;;;;;;;17.35;12.93;;;;;;;15.79;82.81;99038.02;1738453;80;21610;-92
2022/05/09 06:40:52;;;;;;;17.12;11.25;;;;;;;15.72;79.21;99042.48;1734161;80;21430;-80
2022/05/09 06:43:19;;;;;;;14.73;9.40;;;;;;;15.91;81.63;99040.38;1727915;80;21421;-81
2022/05/09 06:45:45;;;;;;;10.08;7.78;;;;;;;16.17;83.26;99038.98;1725097;80;21334;-81
2022/05/09 06:48:11;;;;;;;9.08;8.08;;;;;;;16.24;78.23;99039.45;1721795;80;20878;-81
2022/05/09 06:50:39;;;;;;;10.15;8.75;;;;;;;16.38;77.10;99040.91;1726800;81;20866;-81
2022/05/09 06:53:05;;;;;;;9.40;7.58;;;;;;;16.72;80.22;99035.84;1724694;81;21029;-81
2022/05/09 06:55:30;;;;;;;10.55;7.87;;;;;;;17.17;76.97;99038.44;1723535;80;21094;-81
2022/05/09 06:57:57;;;;;;;11.83;8.55;;;;;;;17.55;76.23;99036.45;1707656;80;21329;-81
2022/05/09 07:00:24;;;;;;;9.80;8.00;;;;;;;17.90;78.46;99032.28;1718293;80;21159;-81
2022/05/09 07:02:50;;;;;;;10.93;6.65;;;;;;;17.96;75.61;99035.19;1715583;81;21034;-81
2022/05/09 07:05:17;;;;;;;7.47;5.78;;;;;;;18.03;70.91;99035.61;1711284;80;21566;-80
2022/05/09 07:07:43;;;;;;;5.67;4.85;;;;;;;18.26;70.44;99044.73;1730590;80;21068;-89
2022/05/09 07:10:10;;;;;;;8.88;5.28;;;;;;;18.29;71.32;99032.36;1722520;80;21552;-94
2022/05/09 07:12:48;;;;;;;7.95;5.42;;;;;;;18.30;71.82;99033.41;1741353;80;21493;-93
2022/05/09 07:15:23;;;;;;;7.60;5.20;;;;;;;18.43;67.26;99035.06;1732502;80;21128;-93
2022/05/09 07:17:50;;;;;;;9.85;5.20;;;;;;;18.89;65.83;99040.42;1733203;80;21081;-81
2022/05/09 07:20:17;;;;;;;8.13;5.80;;;;;;;19.40;68.96;99030.39;1726177;80;20995;-81
2022/05/09 07:22:44;;;;;;;5.78;5.12;;;;;;;20.05;67.07;99032.30;1731199;80;21080;-81
2022/05/09 07:25:13;;;;;;;7.47;5.12;;;;;;;20.54;67.38;99038.07;1729970;80;21046;-82
2022/05/09 07:27:42;;;;;;;7.42;5.20;;;;;;;20.39;65.37;99033.78;1726200;80;20999;-82
2022/05/09 07:30:15;;;;;;;7.47;5.58;;;;;;;19.66;64.93;99037.45;1711105;80;21090;-94
2022/05/09 07:32:41;;;;;;;7.95;5.85;;;;;;;19.08;65.32;99047.92;1728924;80;21048;-91
2022/05/09 07:35:10;;;;;;;7.85;5.78;;;;;;;18.39;65.03;99042.30;1715824;80;21283;-93
2022/05/09 07:37:38;;;;;;;7.25;5.42;;;;;;;19.12;65.34;99036.55;1737304;80;21168;-95
2022/05/09 07:40:06;;;;;;;7.10;5.28;;;;;;;20.06;65.35;99031.97;1728989;80;21075;-92
2022/05/09 07:42:34;;;;;;;7.15;5.33;;;;;;;20.74;64.51;99029.19;1709450;81;40462;-81
2022/05/09 07:45:03;;;;;;;11.78;5.42;;;;;;;21.52;63.92;99025.05;1738693;80;21171;-82
2022/05/09 07:47:29;;;;;;;8.48;4.42;;;;;;;21.99;57.05;99023.72;1724080;80;21187;-82
2022/05/09 07:49:56;;;;;;;9.70;4.53;;;;;;;22.84;60.50;99023.59;1733161;80;20938;-82
2022/05/09 07:52:22;;;;;;;7.60;3.45;;;;;;;22.55;51.84;99018.89;1730753;80;21059;-82
2022/05/09 07:54:48;;;;;;;5.40;3.40;;;;;;;22.44;49.72;99028.14;1731737;80;21424;-82
2022/05/09 07:57:15;;;;;;;5.87;3.50;;;;;;;22.86;49.18;99020.52;1740050;80;20902;-94
2022/05/09 07:59:41;;;;;;;6.22;3.00;;;;;;;23.79;46.03;99015.03;1738833;80;21169;-96
2022/05/09 08:02:07;;;;;;;6.28;4.15;;;;;;;23.47;42.89;99019.41;1724430;80;20895;-95
2022/05/09 08:04:33;;;;;;;7.12;3.65;;;;;;;23.27;42.51;99018.31;1728590;80;21446;-96
2022/05/09 08:07:00;;;;;;;6.25;3.37;;;;;;;24.62;44.14;99012.44;1722227;80;21029;-82
2022/05/09 08:09:26;;;;;;;4.20;3.12;;;;;;;24.78;45.30;99013.89;1720492;80;21135;-82
2022/05/09 08:11:52;;;;;;;5.70;3.62;;;;;;;24.11;42.35;99006.43;1737582;80;20971;-95
2022/05/09 08:14:18;;;;;;;5.05;3.37;;;;;;;22.84;40.70;99022.20;1736659;80;20859;-92
2022/05/09 08:16:44;;;;;;;4.87;3.60;;;;;;;22.57;42.45;99018.02;1729936;80;20914;-93
2022/05/09 08:19:11;;;;;;;9.85;3.87;;;;;;;21.75;44.46;99022.09;1732365;80;20852;-92
2022/05/09 08:21:38;;;;;;;9.80;3.77;;;;;;;21.79;44.86;99025.80;1732245;80;21044;-91
2022/05/09 08:24:05;;;;;;;7.10;3.65;;;;;;;21.30;44.31;99029.41;1733164;80;21515;-93
2022/05/09 08:26:32;;;;;;;3.65;3.10;;;;;;;21.19;45.83;99026.11;1736006;80;21124;-92
2022/05/09 08:28:57;;;;;;;4.87;3.15;;;;;;;21.56;45.80;99025.23;1723891;80;21056;-93
2022/05/09 08:31:23;;;;;;;7.83;3.65;;;;;;;21.91;43.21;99025.94;1724691;80;21978;-92
2022/05/09 08:33:51;;;;;;;8.88;3.65;;;;;;;21.24;44.32;99024.58;1730413;80;20914;-93
2022/05/09 08:39:04;;;;;;;6.85;3.30;;;;;;;22.87;41.93;99023.52;1730453;80;21029;-92
2022/05/09 08:41:37;;;;;;;5.10;3.17;;;;;;;22.12;42.85;99024.08;1734065;80;21505;-93
2022/05/09 08:44:10;;;;;;;6.37;3.98;;;;;;;22.35;42.73;99026.00;1712241;80;21834;-92
2022/05/09 08:47:16;;;;;;;5.33;3.90;;;;;;;23.23;41.49;99031.98;1728467;80;21132;-92
2022/05/09 08:50:21;;;;;;;6.22;3.60;;;;;;;22.64;41.84;99032.65;1727970;81;21325;-81
2022/05/09 08:52:55;;;;;;;6.28;3.60;;;;;;;22.03;44.37;99030.17;1733315;80;21479;-81
2022/05/09 08:55:27;;;;;;;5.95;4.20;;;;;;;;;;1733798;80;22354;-82
2022/05/09 08:58:25;;;;;;;7.37;4.92;;;;;;;20.97;46.31;99033.19;1735168;80;21534;-81
2022/05/09 09:00:52;;;;;;;8.15;4.28;;;;;;;20.55;47.37;99034.19;1725480;81;21437;-82
2022/05/09 09:03:29;;;;;;;6.17;4.35;;;;;;;20.29;48.84;99037.65;1713686;80;21052;-81
2022/05/09 09:05:57;;;;;;;8.03;4.20;;;;;;;21.38;45.01;99028.59;1716571;80;21076;-81
2022/05/09 09:08:29;;;;;;;;;;;;;;;21.99;45.83;99033.37;1726770;80;21546;-96
2022/05/09 09:11:22;;;;;;;7.47;3.80;;;;;;;22.47;44.75;99030.26;1735321;80;20150;-91
2022/05/09 09:14:08;;;;;;;7.45;3.85;;;;;;;22.50;45.67;99035.11;1733028;80;21052;-93
2022/05/09 09:17:11;;;;;;;6.85;4.62;;;;;;;21.71;45.32;99034.93;1721154;80;21156;-92
2022/05/09 09:20:03;;;;;;;6.20;4.03;;;;;;;20.69;45.79;99035.44;1735657;80;21072;-91
2022/05/09 09:22:35;;;;;;;10.63;5.20;;;;;;;20.42;47.61;99042.77;1734941;80;21017;-94
2022/05/09 09:25:25;;;;;;;6.42;4.72;;;;;;;19.88;48.63;99039.91;1714431;80;20967;-92
2022/05/09 09:27:59;;;;;;;8.05;4.50;;;;;;;19.51;50.67;99035.06;1719871;81;21123;-91
2022/05/09 09:30:26;;;;;;;6.62;4.83;;;;;;;19.37;51.67;99035.69;1726800;80;21523;-93
2022/05/09 09:33:09;;;;;;;10.08;6.28;;;;;;;19.02;51.92;99046.41;1734095;80;21064;-91
2022/05/09 09:35:49;;;;;;;9.83;5.40;;;;;;;18.75;53.51;99047.30;1732091;80;21247;-93
2022/05/09 09:38:53;;;;;;;8.05;4.80;;;;;;;18.51;54.99;99050.81;1726857;80;21070;-94
2022/05/09 09:41:31;;;;;;;9.00;4.78;;;;;;;18.21;53.49;99050.89;1731583;80;21263;-92
2022/05/09 09:44:13;;;;;;;6.00;4.65;;;;;;;18.16;53.41;99055.10;1713275;80;21147;-93
2022/05/09 09:47:02;;;;;;;8.43;4.33;;;;;;;17.83;53.78;99052.98;1722365;80;21614;-81
2022/05/09 09:49:28;;;;;;;11.43;4.67;;;;;;;18.23;52.88;99053.58;1734900;80;21031;-81
2022/05/09 09:51:54;;;;;;;7.12;4.20;;;;;;;19.29;51.08;99049.61;1726080;80;20898;-94
2022/05/09 09:54:22;;;;;;;9.30;4.37;;;;;;;20.21;46.72;99041.18;1711865;80;21075;-94
2022/05/09 09:56:48;;;;;;;7.37;3.90;;;;;;;21.59;45.24;99044.67;1721164;80;21158;-95
2022/05/09 09:59:20;;;;;;;10.65;4.85;;;;;;;21.05;43.35;99045.59;1724150;80;20889;-92
2022/05/09 10:02:06;;;;;;;8.20;3.70;;;;;;;23.27;42.15;99051.48;1713698;81;21635;-96
2022/05/09 10:04:32;;;;;;;8.48;3.90;;;;;;;24.46;40.65;99035.88;1748251;80;21139;-82
2022/05/09 10:07:13;;;;;;;7.08;3.77;;;;;;;24.43;38.13;99026.86;1745887;80;20874;-82
2022/05/09 10:10:11;;;;;;;6.75;3.90;;;;;;;23.67;41.32;99024.13;1731786;80;21060;-81
2022/05/09 10:12:42;;;;;;;11.65;3.47;;;;;;;22.37;37.61;99031.19;1712488;81;20999;-81
2022/05/09 10:15:36;;;;;;;7.80;4.65;;;;;;;22.36;40.91;99032.34;1720472;80;21044;-81
2022/05/09 10:18:23;;;;;;;6.28;4.17;;;;;;;21.98;41.92;99034.52;1722405;81;20970;-82
2022/05/09 10:20:51;;;;;;;10.55;4.50;;;;;;;22.09;41.94;99023.38;1731533;80;21005;-82
2022/05/09 10:26:22;;;;;;;10.00;4.60;;;;;;;20.97;45.07;99024.92;1733047;80;21435;-81
2022/05/09 10:28:54;;;;;;;9.38;4.53;;;;;;;20.32;45.96;99026.56;1732881;80;21528;-81
2022/05/09 10:31:48;;;;;;;8.70;4.58;;;;;;;19.79;46.88;99027.48;1732592;80;21082;-94
2022/05/09 10:34:22;;;;;;;8.70;4.97;;;;;;;19.42;47.32;99028.14;1733557;80;21063;-95
2022/05/09 10:36:56;;;;;;;7.72;4.62;;;;;;;19.56;47.27;99024.48;1731118;80;21222;-96
2022/05/09 10:39:36;;;;;;;11.30;5.12;;;;;;;19.55;47.05;99023.67;1728213;80;21809;-82
2022/05/09 10:42:10;;;;;;;7.37;5.17;;;;;;;19.53;48.38;99028.68;1731774;80;21077;-81
2022/05/09 10:45:10;;;;;;;7.30;4.30;;;;;;;19.27;47.08;99026.33;1734741;80;22003;-81
2022/05/09 10:47:57;;;;;;;6.87;4.30;;;;;;;19.13;47.67;99028.55;1712740;81;21426;-82
2022/05/09 10:50:28;;;;;;;7.70;3.80;;;;;;;19.35;46.87;99026.39;1719667;80;21252;-81
2022/05/09 10:53:31;;;;;;;9.80;4.15;;;;;;;19.67;45.59;99023.14;1720633;80;21391;-81
2022/05/09 10:56:11;;;;;;;8.25;3.40;;;;;;;19.84;45.93;99023.80;1732573;80;21398;-81
2022/05/09 10:58:57;;;;;;;9.83;3.65;;;;;;;20.44;44.59;99019.92;1737639;80;21079;-81
2022/05/09 11:01:34;;;;;;;5.17;3.50;;;;;;;22.59;40.08;99017.09;1726699;80;21013;-82
2022/05/09 11:04:00;;;;;;;8.15;3.05;;;;;;;24.89;37.07;99007.52;1746106;80;21139;-82
2022/05/09 11:06:58;;;;;;;5.58;3.35;;;;;;;26.37;36.62;99002.80;1729555;80;20929;-94
2022/05/09 11:09:48;;;;;;;4.35;3.42;;;;;;;24.88;33.28;99002.34;1731010;80;21017;-82
2022/05/09 11:12:49;;;;;;;4.08;3.27;;;;;;;24.79;34.66;98998.90;1722422;80;21214;-82
2022/05/09 11:15:43;;;;;;;5.03;3.35;;;;;;;25.25;32.06;98999.69;1733948;81;20985;-82
2022/05/09 11:18:40;;;;;;;4.80;3.62;;;;;;;24.24;33.04;98990.03;1736403;80;21155;-82
2022/05/09 11:21:35;;;;;;;5.97;3.72;;;;;;;22.62;36.83;98997.08;1730449;80;21046;-82
2022/05/09 11:24:41;;;;;;;6.87;3.62;;;;;;;21.05;38.24;99007.02;1728543;80;21490;-82
2022/05/09 11:27:36;;;;;;;8.78;3.47;;;;;;;21.57;38.83;98993.75;1731595;80;21044;-82
2022/05/09 11:30:23;;;;;;;5.25;3.95;;;;;;;21.08;40.43;98989.02;1742897;80;21024;-83
2022/05/09 11:33:20;;;;;;;5.60;3.42;;;;;;;20.79;40.98;98993.23;1728798;80;21141;-83
2022/05/09 11:35:48;;;;;;;7.08;3.30;;;;;;;20.81;41.03;98990.16;1737755;80;21439;-82
2022/05/09 11:38:26;;;;;;;7.10;3.30;;;;;;;20.72;41.51;98983.84;1736043;80;21378;-82
2022/05/09 11:41:16;;;;;;;8.45;4.05;;;;;;;20.98;41.60;98979.14;1740799;80;21068;-83
2022/05/09 11:44:05;;;;;;;6.22;3.67;;;;;;;21.28;41.67;98980.69;1736605;80;21050;-82
2022/05/09 11:46:55;;;;;;;8.80;3.60;;;;;;;21.00;40.91;98975.48;1716441;81;21986;-82
2022/05/09 11:49:44;;;;;;;10.75;3.87;;;;;;;22.10;39.56;98974.50;1727509;80;22269;-82
2022/05/09 11:52:19;;;;;;;9.68;4.08;;;;;;;22.35;37.30;98968.03;1706106;80;21996;-82
2022/05/09 11:54:45;;;;;;;6.37;2.80;;;;;;;23.22;36.66;98961.25;1721257;80;21028;-82
2022/05/09 11:57:30;;;;;;;4.58;2.72;;;;;;;23.96;35.31;98955.33;1733006;80;21437;-82
2022/05/09 11:59:58;;;;;;;6.83;2.92;;;;;;;23.56;33.25;98959.27;1728506;80;21108;-82